Fort Lauderdale, FL

10:27 PM EDT on August 27, 2016 (GMT -0400)
APRSWXNET | | Change Station

Elev 6 ft 26.10 °N, 80.12 °W | Updated 21 minutes ago

Mostly Cloudy
Mostly Cloudy
84 °F
Feels Like 96 °F
N
6
Wind Variable Wind from SW
Gusts 12.0 mph

Today
High -- | Low -- °F
--% Chance of Precip.
Yesterday
High -- | Low -- °F
Precip. -- in
Pressure 29.90 in
Visibility 10.0 miles
Clouds Scattered Clouds 2300 ft
Scattered Clouds 9000 ft
Mostly Cloudy 23000 ft
Heat Index 96 °F
Dew Point 79 °F
Humidity 85%
Rainfall in
Snow Depth Not available.
6:58 AM 7:44 PM
Waning Crescent, 19% visible
METAR KFLL 280153Z 07009KT 10SM SCT023 SCT090 BKN230 29/25 A2990 RMK AO2 SLP123 T02890250
Pressure 29.90 in
Visibility 10.0 miles
Clouds Scattered Clouds 2300 ft
Scattered Clouds 9000 ft
Mostly Cloudy 23000 ft
Heat Index 96 °F
Dew Point 79 °F
Humidity 85%
Rainfall in
Snow Depth Not available.
6:58 AM 7:44 PM
Waning Crescent, 19% visible
METAR KFLL 280153Z 07009KT 10SM SCT023 SCT090 BKN230 29/25 A2990 RMK AO2 SLP123 T02890250

10-Day Weather Forecast

Almanac

Astronomy

Aug. 27, 2016 Rise Set
Actual Time
Civil Twilight
Nautical Twilight
Astronomical Twilight
Moon
Length of Visible Light
Length of Day
Tomorrow will be .
, % of the Moon is Illuminated

Today's Extremes

State Highs State Lows

Community

WunderPhotos

Upload Photos

1,935,496 photos uploaded!

WunderBlog® & News

Nearby

Air Quality

  Air Quality AQ Index Pollutant
Not available.

Snow Depth

Station Depth Elevation

Earthquake Activity

City Distance Mag. Time & Date
Minimum magnitude displayed is 2.5.

Coastal Water Temperatures

Place Temperature

Stations

Nearby Weather Stations

Station Location Temp. Windchill Dew Point Humidity Wind Precip. Elev Updated Type
                   

Watches & Warnings

There are currently no watches in effect.